sensor_id;sensor_type;location;lat;lon;timestamp;pressure;altitude;pressure_sealevel;temperature;humidity
78144;BME280;67394;52.522;13.622;2023-02-19T00:00:58;100829.84;;;4.67;88.71
78144;BME280;67394;52.522;13.622;2023-02-19T00:03:24;100830.75;;;4.69;88.27
78144;BME280;67394;52.522;13.622;2023-02-19T00:05:50;100830.13;;;4.76;87.80
78144;BME280;67394;52.522;13.622;2023-02-19T00:08:17;100824.78;;;4.67;87.22
78144;BME280;67394;52.522;13.622;2023-02-19T00:10:43;100838.22;;;4.63;87.95
78144;BME280;67394;52.522;13.622;2023-02-19T00:13:09;100843.31;;;4.63;87.98
78144;BME280;67394;52.522;13.622;2023-02-19T00:15:36;100836.59;;;4.65;87.93
78144;BME280;67394;52.522;13.622;2023-02-19T00:18:02;100829.84;;;4.67;88.21
78144;BME280;67394;52.522;13.622;2023-02-19T00:20:28;100838.31;;;4.66;88.13
78144;BME280;67394;52.522;13.622;2023-02-19T00:22:55;100828.19;;;4.67;87.36
78144;BME280;67394;52.522;13.622;2023-02-19T00:25:21;100837.38;;;4.62;87.60
78144;BME280;67394;52.522;13.622;2023-02-19T00:27:47;100832.25;;;4.61;87.95
78144;BME280;67394;52.522;13.622;2023-02-19T00:30:14;100824.50;;;4.56;88.46
78144;BME280;67394;52.522;13.622;2023-02-19T00:32:40;100827.91;;;4.57;88.27
78144;BME280;67394;52.522;13.622;2023-02-19T00:35:06;100822.41;;;4.73;87.29
78144;BME280;67394;52.522;13.622;2023-02-19T00:37:33;100816.94;;;4.58;88.44
78144;BME280;67394;52.522;13.622;2023-02-19T00:39:59;100816.78;;;4.52;87.70
78144;BME280;67394;52.522;13.622;2023-02-19T00:42:25;100811.66;;;4.50;88.26
78144;BME280;67394;52.522;13.622;2023-02-19T00:44:52;100802.53;;;4.57;87.75
78144;BME280;67394;52.522;13.622;2023-02-19T00:47:18;100806.00;;;4.60;87.26
78144;BME280;67394;52.522;13.622;2023-02-19T00:49:44;100801.66;;;4.56;87.52
78144;BME280;67394;52.522;13.622;2023-02-19T00:52:11;100810.13;;;4.55;88.06
78144;BME280;67394;52.522;13.622;2023-02-19T00:54:37;100807.34;;;4.48;88.11
78144;BME280;67394;52.522;13.622;2023-02-19T00:57:03;100809.91;;;4.48;88.77
78144;BME280;67394;52.522;13.622;2023-02-19T00:59:30;100811.63;;;4.49;88.87
78144;BME280;67394;52.522;13.622;2023-02-19T01:01:56;100812.44;;;4.48;88.11
78144;BME280;67394;52.522;13.622;2023-02-19T01:04:22;100821.84;;;4.52;88.05
78144;BME280;67394;52.522;13.622;2023-02-19T01:06:49;100812.44;;;4.48;88.03
78144;BME280;67394;52.522;13.622;2023-02-19T01:09:15;100802.22;;;4.45;87.77
78144;BME280;67394;52.522;13.622;2023-02-19T01:11:41;100808.34;;;4.53;87.03
78144;BME280;67394;52.522;13.622;2023-02-19T01:14:08;100801.59;;;4.53;86.71
78144;BME280;67394;52.522;13.622;2023-02-19T01:16:35;100799.84;;;4.51;87.18
78144;BME280;67394;52.522;13.622;2023-02-19T01:19:01;100797.38;;;4.54;87.74
78144;BME280;67394;52.522;13.622;2023-02-19T01:21:29;100789.63;;;4.49;88.31
78144;BME280;67394;52.522;13.622;2023-02-19T01:23:56;100789.78;;;4.54;87.63
78144;BME280;67394;52.522;13.622;2023-02-19T01:26:24;100793.84;;;4.49;87.95
78144;BME280;67394;52.522;13.622;2023-02-19T01:28:51;100776.81;;;4.43;87.98
78144;BME280;67394;52.522;13.622;2023-02-19T01:31:19;100770.09;;;4.47;87.52
78144;BME280;67394;52.522;13.622;2023-02-19T01:33:48;100767.50;;;4.44;88.28
78144;BME280;67394;52.522;13.622;2023-02-19T01:36:15;100765.03;;;4.47;88.13
78144;BME280;67394;52.522;13.622;2023-02-19T01:38:42;100762.50;;;4.47;88.33
78144;BME280;67394;52.522;13.622;2023-02-19T01:41:11;100752.31;;;4.45;88.34
78144;BME280;67394;52.522;13.622;2023-02-19T01:46:41;100731.09;;;4.41;88.54
78144;BME280;67394;52.522;13.622;2023-02-19T01:49:20;100738.53;;;4.35;88.06
78144;BME280;67394;52.522;13.622;2023-02-19T01:51:57;100749.66;;;4.40;88.45
78144;BME280;67394;52.522;13.622;2023-02-19T01:54:27;100746.13;;;4.35;88.68
78144;BME280;67394;52.522;13.622;2023-02-19T01:56:56;100748.03;;;4.43;87.63
78144;BME280;67394;52.522;13.622;2023-02-19T01:59:24;100741.88;;;4.34;87.99
78144;BME280;67394;52.522;13.622;2023-02-19T02:01:51;100737.59;;;4.32;88.60
78144;BME280;67394;52.522;13.622;2023-02-19T02:04:17;100729.13;;;4.31;89.06
78144;BME280;67394;52.522;13.622;2023-02-19T02:06:53;100728.28;;;4.31;88.78
78144;BME280;67394;52.522;13.622;2023-02-19T02:09:22;100731.66;;;4.31;89.30
78144;BME280;67394;52.522;13.622;2023-02-19T02:11:51;100724.97;;;4.33;88.75
78144;BME280;67394;52.522;13.622;2023-02-19T02:14:20;100706.25;;;4.30;89.19
78144;BME280;67394;52.522;13.622;2023-02-19T02:17:12;100708.66;;;4.25;89.84
78144;BME280;67394;52.522;13.622;2023-02-19T02:22:48;100711.97;;;4.21;89.13
78144;BME280;67394;52.522;13.622;2023-02-19T02:25:48;100709.28;;;4.17;89.82
78144;BME280;67394;52.522;13.622;2023-02-19T02:31:32;100706.38;;;4.03;89.30
78144;BME280;67394;52.522;13.622;2023-02-19T02:34:11;100715.69;;;4.02;89.36
78144;BME280;67394;52.522;13.622;2023-02-19T02:36:43;100728.47;;;4.07;88.89
78144;BME280;67394;52.522;13.622;2023-02-19T02:39:13;100726.84;;;4.09;89.22
78144;BME280;67394;52.522;13.622;2023-02-19T02:41:43;100722.47;;;4.03;89.17
78144;BME280;67394;52.522;13.622;2023-02-19T02:44:10;100714.84;;;4.02;88.79
78144;BME280;67394;52.522;13.622;2023-02-19T02:46:41;100717.19;;;3.96;89.44
78144;BME280;67394;52.522;13.622;2023-02-19T02:49:20;100716.13;;;3.88;89.45
78144;BME280;67394;52.522;13.622;2023-02-19T02:51:51;100712.16;;;3.97;88.55
78144;BME280;67394;52.522;13.622;2023-02-19T02:54:22;100709.25;;;3.84;89.16
78144;BME280;67394;52.522;13.622;2023-02-19T02:56:51;100718.31;;;3.76;89.10
78144;BME280;67394;52.522;13.622;2023-02-19T02:59:22;100720.75;;;3.73;88.99
78144;BME280;67394;52.522;13.622;2023-02-19T03:01:54;100721.56;;;3.70;89.76
78144;BME280;67394;52.522;13.622;2023-02-19T03:07:11;100732.56;;;3.71;89.05
78144;BME280;67394;52.522;13.622;2023-02-19T03:09:41;100724.72;;;3.63;90.27
78144;BME280;67394;52.522;13.622;2023-02-19T03:12:12;100723.94;;;3.65;89.47
78144;BME280;67394;52.522;13.622;2023-02-19T03:14:47;100724.66;;;3.60;90.34
78144;BME280;67394;52.522;13.622;2023-02-19T03:17:19;100726.00;;;3.49;90.69
78144;BME280;67394;52.522;13.622;2023-02-19T03:19:50;100734.38;;;3.46;90.64
78144;BME280;67394;52.522;13.622;2023-02-19T03:22:23;100741.00;;;3.43;90.41
78144;BME280;67394;52.522;13.622;2023-02-19T03:24:58;100740.84;;;3.37;89.85
78144;BME280;67394;52.522;13.622;2023-02-19T03:27:27;100746.84;;;3.40;89.89
78144;BME280;67394;52.522;13.622;2023-02-19T03:29:57;100756.13;;;3.40;90.37
78144;BME280;67394;52.522;13.622;2023-02-19T03:32:30;100749.44;;;3.42;90.22
78144;BME280;67394;52.522;13.622;2023-02-19T03:35:10;100746.78;;;3.37;90.32
78144;BME280;67394;52.522;13.622;2023-02-19T03:38:32;100748.41;;;3.35;89.19
78144;BME280;67394;52.522;13.622;2023-02-19T03:41:22;100754.81;;;3.24;89.96
78144;BME280;67394;52.522;13.622;2023-02-19T03:43:49;100753.66;;;3.14;90.19
78144;BME280;67394;52.522;13.622;2023-02-19T03:46:24;100756.03;;;3.10;88.87
78144;BME280;67394;52.522;13.622;2023-02-19T03:49:04;100754.38;;;3.10;88.58
78144;BME280;67394;52.522;13.622;2023-02-19T03:51:42;100757.66;;;3.08;87.70
78144;BME280;67394;52.522;13.622;2023-02-19T03:54:31;100761.63;;;3.00;88.26
78144;BME280;67394;52.522;13.622;2023-02-19T04:00:10;100764.13;;;2.98;87.00
78144;BME280;67394;52.522;13.622;2023-02-19T04:03:32;100757.19;;;2.92;87.51
78144;BME280;67394;52.522;13.622;2023-02-19T04:05:36;100754.66;;;2.92;87.63
78144;BME280;67394;52.522;13.622;2023-02-19T04:08:09;100757.94;;;2.90;87.60
78144;BME280;67394;52.522;13.622;2023-02-19T04:10:37;100757.59;;;2.79;88.80
78144;BME280;67394;52.522;13.622;2023-02-19T04:13:10;100759.50;;;2.85;88.81
78144;BME280;67394;52.522;13.622;2023-02-19T04:15:41;100765.50;;;2.88;89.30
78144;BME280;67394;52.522;13.622;2023-02-19T04:18:23;100773.66;;;2.80;88.83
78144;BME280;67394;52.522;13.622;2023-02-19T04:20:51;100771.22;;;2.83;89.33
78144;BME280;67394;52.522;13.622;2023-02-19T04:23:20;100775.28;;;2.78;88.94
78144;BME280;67394;52.522;13.622;2023-02-19T04:25:49;100784.75;;;2.83;89.47
78144;BME280;67394;52.522;13.622;2023-02-19T04:28:18;100779.53;;;2.79;89.64
78144;BME280;67394;52.522;13.622;2023-02-19T04:30:45;100784.34;;;2.71;89.41
78144;BME280;67394;52.522;13.622;2023-02-19T04:33:11;100789.09;;;2.62;89.28
78144;BME280;67394;52.522;13.622;2023-02-19T04:35:37;100793.50;;;2.68;89.62
78144;BME280;67394;52.522;13.622;2023-02-19T04:38:04;100796.78;;;2.65;90.00
78144;BME280;67394;52.522;13.622;2023-02-19T04:40:30;100796.56;;;2.59;89.58
78144;BME280;67394;52.522;13.622;2023-02-19T04:42:56;100796.47;;;2.56;89.58
78144;BME280;67394;52.522;13.622;2023-02-19T04:45:23;100792.19;;;2.53;88.72
78144;BME280;67394;52.522;13.622;2023-02-19T04:47:49;100792.81;;;2.48;89.06
78144;BME280;67394;52.522;13.622;2023-02-19T04:50:16;100795.25;;;2.45;89.67
78144;BME280;67394;52.522;13.622;2023-02-19T04:52:42;100798.44;;;2.39;89.98
78144;BME280;67394;52.522;13.622;2023-02-19T04:55:09;100805.97;;;2.38;90.00
78144;BME280;67394;52.522;13.622;2023-02-19T04:57:35;100792.41;;;2.36;90.04
78144;BME280;67394;52.522;13.622;2023-02-19T05:00:02;100801.72;;;2.37;90.12
78144;BME280;67394;52.522;13.622;2023-02-19T05:02:29;100809.72;;;2.49;89.65
78144;BME280;67394;52.522;13.622;2023-02-19T05:04:55;100810.34;;;2.42;90.22
78144;BME280;67394;52.522;13.622;2023-02-19T05:07:21;100816.94;;;2.38;90.66
78144;BME280;67394;52.522;13.622;2023-02-19T05:09:47;100816.13;;;2.39;90.13
78144;BME280;67394;52.522;13.622;2023-02-19T05:12:14;100816.06;;;2.38;90.41
78144;BME280;67394;52.522;13.622;2023-02-19T05:14:40;100817.59;;;2.33;89.80
78144;BME280;67394;52.522;13.622;2023-02-19T05:17:06;100813.34;;;2.32;90.39
78144;BME280;67394;52.522;13.622;2023-02-19T05:19:33;100813.13;;;2.26;90.41
78144;BME280;67394;52.522;13.622;2023-02-19T05:21:59;100808.19;;;2.29;91.44
78144;BME280;67394;52.522;13.622;2023-02-19T05:24:25;100804.97;;;2.33;90.75
78144;BME280;67394;52.522;13.622;2023-02-19T05:26:52;100809.09;;;2.31;90.81
78144;BME280;67394;52.522;13.622;2023-02-19T05:29:18;100811.72;;;2.34;90.98
78144;BME280;67394;52.522;13.622;2023-02-19T05:31:44;100807.75;;;2.40;90.62
78144;BME280;67394;52.522;13.622;2023-02-19T05:34:11;100801.22;;;2.47;89.90
78144;BME280;67394;52.522;13.622;2023-02-19T05:36:38;100802.50;;;2.36;90.50
78144;BME280;67394;52.522;13.622;2023-02-19T05:39:04;100804.03;;;2.31;90.37
78144;BME280;67394;52.522;13.622;2023-02-19T05:41:30;100810.81;;;2.32;90.64
78144;BME280;67394;52.522;13.622;2023-02-19T05:43:57;100806.06;;;2.41;89.96
78144;BME280;67394;52.522;13.622;2023-02-19T05:46:26;100814.25;;;2.34;90.20
78144;BME280;67394;52.522;13.622;2023-02-19T05:48:53;100813.44;;;2.35;90.30
78144;BME280;67394;52.522;13.622;2023-02-19T05:51:21;100816.28;;;2.44;90.07
78144;BME280;67394;52.522;13.622;2023-02-19T05:53:48;100819.66;;;2.44;90.24
78144;BME280;67394;52.522;13.622;2023-02-19T05:59:01;100826.06;;;2.35;90.02
78144;BME280;67394;52.522;13.622;2023-02-19T06:01:29;100825.13;;;2.31;90.15
78144;BME280;67394;52.522;13.622;2023-02-19T06:03:56;100826.06;;;2.35;89.45
78144;BME280;67394;52.522;13.622;2023-02-19T06:06:23;100821.03;;;2.35;89.40
78144;BME280;67394;52.522;13.622;2023-02-19T06:08:50;100817.75;;;2.37;89.21
78144;BME280;67394;52.522;13.622;2023-02-19T06:11:17;100819.16;;;2.29;90.58
78144;BME280;67394;52.522;13.622;2023-02-19T06:13:44;100819.78;;;2.24;90.47
78144;BME280;67394;52.522;13.622;2023-02-19T06:16:10;100816.56;;;2.28;89.95
78144;BME280;67394;52.522;13.622;2023-02-19T06:18:37;100813.28;;;2.30;89.08
78144;BME280;67394;52.522;13.622;2023-02-19T06:21:05;100811.72;;;2.34;88.75
78144;BME280;67394;52.522;13.622;2023-02-19T06:23:31;100820.94;;;2.32;89.14
78144;BME280;67394;52.522;13.622;2023-02-19T06:26:15;100818.06;;;2.22;89.93
78144;BME280;67394;52.522;13.622;2023-02-19T06:28:42;100823.03;;;2.19;90.35
78144;BME280;67394;52.522;13.622;2023-02-19T06:31:09;100824.03;;;2.25;91.16
78144;BME280;67394;52.522;13.622;2023-02-19T06:33:37;100823.09;;;2.22;91.01
78144;BME280;67394;52.522;13.622;2023-02-19T06:36:05;100835.53;;;2.16;90.75
78144;BME280;67394;52.522;13.622;2023-02-19T06:38:32;100842.22;;;2.14;90.90
78144;BME280;67394;52.522;13.622;2023-02-19T06:41:00;100846.13;;;2.06;91.37
78144;BME280;67394;52.522;13.622;2023-02-19T06:43:27;100849.91;;;2.17;90.54
78144;BME280;67394;52.522;13.622;2023-02-19T06:45:53;100857.28;;;2.11;90.81
78144;BME280;67394;52.522;13.622;2023-02-19T06:48:20;100861.09;;;2.24;90.56
78144;BME280;67394;52.522;13.622;2023-02-19T06:50:46;100869.22;;;2.15;90.80
78144;BME280;67394;52.522;13.622;2023-02-19T06:53:12;100878.31;;;2.10;91.27
78144;BME280;67394;52.522;13.622;2023-02-19T06:55:38;100882.78;;;2.17;90.36
78144;BME280;67394;52.522;13.622;2023-02-19T06:58:06;100876.22;;;2.22;90.15
78144;BME280;67394;52.522;13.622;2023-02-19T07:00:33;100892.91;;;2.17;90.78
78144;BME280;67394;52.522;13.622;2023-02-19T07:02:59;100897.75;;;2.11;90.82
78144;BME280;67394;52.522;13.622;2023-02-19T07:05:26;100888.75;;;2.19;91.17
78144;BME280;67394;52.522;13.622;2023-02-19T07:07:52;100891.16;;;2.16;90.86
78144;BME280;67394;52.522;13.622;2023-02-19T07:10:18;100892.78;;;2.14;91.59
78144;BME280;67394;52.522;13.622;2023-02-19T07:12:45;100886.31;;;2.22;91.21
78144;BME280;67394;52.522;13.622;2023-02-19T07:15:11;100899.81;;;2.22;90.86
78144;BME280;67394;52.522;13.622;2023-02-19T07:17:37;100903.47;;;2.30;90.98
78144;BME280;67394;52.522;13.622;2023-02-19T07:20:04;100908.53;;;2.30;90.73
78144;BME280;67394;52.522;13.622;2023-02-19T07:22:30;100912.84;;;2.32;89.96
78144;BME280;67394;52.522;13.622;2023-02-19T07:24:57;100915.63;;;2.40;89.50
78144;BME280;67394;52.522;13.622;2023-02-19T07:27:23;100915.63;;;2.40;87.47
78144;BME280;67394;52.522;13.622;2023-02-19T07:29:49;100924.25;;;2.45;88.54
78144;BME280;67394;52.522;13.622;2023-02-19T07:32:16;100928.28;;;2.40;89.36
78144;BME280;67394;52.522;13.622;2023-02-19T07:34:42;100931.09;;;2.47;88.25
78144;BME280;67394;52.522;13.622;2023-02-19T07:37:08;100944.53;;;2.46;87.57
78144;BME280;67394;52.522;13.622;2023-02-19T07:39:35;100943.00;;;2.50;87.72
78144;BME280;67394;52.522;13.622;2023-02-19T07:42:01;100940.59;;;2.53;88.67
78144;BME280;67394;52.522;13.622;2023-02-19T07:44:27;100948.09;;;2.51;87.84
78144;BME280;67394;52.522;13.622;2023-02-19T07:46:54;100952.63;;;2.60;88.15
78144;BME280;67394;52.522;13.622;2023-02-19T07:49:20;100959.69;;;2.69;87.08
78144;BME280;67394;52.522;13.622;2023-02-19T07:51:46;100967.41;;;2.72;86.95
78144;BME280;67394;52.522;13.622;2023-02-19T07:54:12;100958.78;;;2.67;86.28
78144;BME280;67394;52.522;13.622;2023-02-19T07:56:39;100962.88;;;2.63;87.53
78144;BME280;67394;52.522;13.622;2023-02-19T07:59:05;100969.81;;;2.69;86.74
78144;BME280;67394;52.522;13.622;2023-02-19T08:01:31;100972.19;;;2.64;86.52
78144;BME280;67394;52.522;13.622;2023-02-19T08:03:58;100986.94;;;2.76;86.21
78144;BME280;67394;52.522;13.622;2023-02-19T08:06:24;100987.72;;;2.73;85.62
78144;BME280;67394;52.522;13.622;2023-02-19T08:08:51;100994.25;;;2.68;85.97
78144;BME280;67394;52.522;13.622;2023-02-19T08:11:17;101008.81;;;2.74;85.83
78144;BME280;67394;52.522;13.622;2023-02-19T08:13:43;101014.75;;;2.74;87.24
78144;BME280;67394;52.522;13.622;2023-02-19T08:16:12;101012.41;;;2.80;86.41
78144;BME280;67394;52.522;13.622;2023-02-19T08:18:52;101015.34;;;2.91;86.98
78144;BME280;67394;52.522;13.622;2023-02-19T08:21:18;101024.59;;;2.90;86.54
78144;BME280;67394;52.522;13.622;2023-02-19T08:23:44;101022.06;;;2.90;86.55
78144;BME280;67394;52.522;13.622;2023-02-19T08:26:11;101029.78;;;2.93;86.23
78144;BME280;67394;52.522;13.622;2023-02-19T08:28:37;101040.72;;;2.92;85.67
78144;BME280;67394;52.522;13.622;2023-02-19T08:31:05;101050.16;;;2.97;86.25
78144;BME280;67394;52.522;13.622;2023-02-19T08:33:32;101056.22;;;3.02;86.10
78144;BME280;67394;52.522;13.622;2023-02-19T08:36:05;101068.22;;;3.06;86.29
78144;BME280;67394;52.522;13.622;2023-02-19T08:38:33;101074.00;;;3.03;85.58
78144;BME280;67394;52.522;13.622;2023-02-19T08:41:03;101072.34;;;3.04;85.65
78144;BME280;67394;52.522;13.622;2023-02-19T08:43:29;101082.69;;;3.10;85.76
78144;BME280;67394;52.522;13.622;2023-02-19T08:45:55;101081.94;;;3.12;85.57
78144;BME280;67394;52.522;13.622;2023-02-19T08:48:22;101079.47;;;3.14;84.92
78144;BME280;67394;52.522;13.622;2023-02-19T08:51:03;101086.59;;;3.24;83.75
78144;BME280;67394;52.522;13.622;2023-02-19T08:53:31;101085.84;;;3.26;85.07
78144;BME280;67394;52.522;13.622;2023-02-19T08:55:57;101093.66;;;3.33;84.60
78144;BME280;67394;52.522;13.622;2023-02-19T08:58:24;101093.22;;;3.44;83.08
78144;BME280;67394;52.522;13.622;2023-02-19T09:00:51;101102.38;;;3.41;83.17
78144;BME280;67394;52.522;13.622;2023-02-19T09:03:17;101101.88;;;3.49;83.67
78144;BME280;67394;52.522;13.622;2023-02-19T09:05:44;101112.09;;;3.52;84.00
78144;BME280;67394;52.522;13.622;2023-02-19T09:08:10;101130.94;;;3.59;84.02
78144;BME280;67394;52.522;13.622;2023-02-19T09:10:36;101113.94;;;3.56;82.59
78144;BME280;67394;52.522;13.622;2023-02-19T09:13:03;101119.53;;;3.48;82.01
78144;BME280;67394;52.522;13.622;2023-02-19T09:15:29;101132.28;;;3.49;82.79
78144;BME280;67394;52.522;13.622;2023-02-19T09:17:56;101129.69;;;3.48;83.17
78144;BME280;67394;52.522;13.622;2023-02-19T09:20:22;101124.88;;;3.55;82.39
78144;BME280;67394;52.522;13.622;2023-02-19T09:22:48;101133.22;;;3.53;82.10
78144;BME280;67394;52.522;13.622;2023-02-19T09:25:15;101132.91;;;3.67;82.80
78144;BME280;67394;52.522;13.622;2023-02-19T09:27:41;101137.44;;;3.76;81.25
78144;BME280;67394;52.522;13.622;2023-02-19T09:30:08;101145.22;;;3.81;81.23
78144;BME280;67394;52.522;13.622;2023-02-19T09:32:34;101137.97;;;3.91;82.07
78144;BME280;67394;52.522;13.622;2023-02-19T09:35:00;101140.59;;;3.94;83.25
78144;BME280;67394;52.522;13.622;2023-02-19T09:37:27;101143.13;;;3.94;82.02
78144;BME280;67394;52.522;13.622;2023-02-19T09:39:54;101149.66;;;3.88;80.74
78144;BME280;67394;52.522;13.622;2023-02-19T09:42:26;101146.22;;;3.86;81.26
78144;BME280;67394;52.522;13.622;2023-02-19T09:44:55;101141.16;;;3.86;82.25
78144;BME280;67394;52.522;13.622;2023-02-19T09:47:25;101148.06;;;3.90;80.96
78144;BME280;67394;52.522;13.622;2023-02-19T09:50:00;101153.06;;;3.88;80.27
78144;BME280;67394;52.522;13.622;2023-02-19T09:52:32;101159.00;;;3.89;81.66
78144;BME280;67394;52.522;13.622;2023-02-19T09:55:03;101160.88;;;3.94;79.88
78144;BME280;67394;52.522;13.622;2023-02-19T09:57:35;101166.97;;;3.99;79.20
78144;BME280;67394;52.522;13.622;2023-02-19T10:02:37;101172.06;;;3.99;78.04
78144;BME280;67394;52.522;13.622;2023-02-19T10:05:12;101174.84;;;4.07;77.84
78144;BME280;67394;52.522;13.622;2023-02-19T10:07:45;101178.59;;;4.18;76.60
78144;BME280;67394;52.522;13.622;2023-02-19T10:12:51;101194.25;;;4.30;77.37
78144;BME280;67394;52.522;13.622;2023-02-19T10:15:29;101196.69;;;4.53;77.66
78144;BME280;67394;52.522;13.622;2023-02-19T10:17:56;101183.94;;;4.51;73.71
78144;BME280;67394;52.522;13.622;2023-02-19T10:20:24;101196.28;;;4.67;76.23
78144;BME280;67394;52.522;13.622;2023-02-19T10:22:59;101200.31;;;4.61;73.98
78144;BME280;67394;52.522;13.622;2023-02-19T10:25:27;101212.84;;;4.55;74.71
78144;BME280;67394;52.522;13.622;2023-02-19T10:28:00;101220.75;;;4.64;74.32
78144;BME280;67394;52.522;13.622;2023-02-19T10:30:30;101221.09;;;4.74;74.21
78144;BME280;67394;52.522;13.622;2023-02-19T10:33:08;101224.03;;;4.87;74.18
78144;BME280;67394;52.522;13.622;2023-02-19T10:35:49;101229.50;;;5.00;73.00
78144;BME280;67394;52.522;13.622;2023-02-19T10:38:17;101233.06;;;5.05;72.05
78144;BME280;67394;52.522;13.622;2023-02-19T10:40:45;101236.06;;;5.21;74.16
78144;BME280;67394;52.522;13.622;2023-02-19T10:43:22;101246.75;;;5.10;72.65
78144;BME280;67394;52.522;13.622;2023-02-19T10:45:50;101241.75;;;5.12;70.18
78144;BME280;67394;52.522;13.622;2023-02-19T10:48:23;101247.03;;;5.20;71.58
78144;BME280;67394;52.522;13.622;2023-02-19T10:50:51;101263.13;;;5.19;70.62
78144;BME280;67394;52.522;13.622;2023-02-19T10:53:22;101260.34;;;5.11;71.62
78144;BME280;67394;52.522;13.622;2023-02-19T10:56:05;101267.91;;;5.09;71.95
78144;BME280;67394;52.522;13.622;2023-02-19T10:58:32;101262.94;;;5.12;71.38
78144;BME280;67394;52.522;13.622;2023-02-19T11:03:45;101272.97;;;5.09;69.64
78144;BME280;67394;52.522;13.622;2023-02-19T11:06:13;101282.78;;;5.24;69.30
78144;BME280;67394;52.522;13.622;2023-02-19T11:08:50;101283.34;;;5.42;68.74
78144;BME280;67394;52.522;13.622;2023-02-19T11:11:22;101277.44;;;5.43;68.32
78144;BME280;67394;52.522;13.622;2023-02-19T11:13:49;101287.16;;;5.30;69.90
78144;BME280;67394;52.522;13.622;2023-02-19T11:16:16;101286.84;;;5.46;71.11
78144;BME280;67394;52.522;13.622;2023-02-19T11:18:43;101290.72;;;5.35;69.00
78144;BME280;67394;52.522;13.622;2023-02-19T11:21:29;101291.38;;;5.28;69.38
78144;BME280;67394;52.522;13.622;2023-02-19T11:23:56;101303.50;;;5.36;70.02
78144;BME280;67394;52.522;13.622;2023-02-19T11:26:24;101303.47;;;5.63;68.28
78144;BME280;67394;52.522;13.622;2023-02-19T11:28:57;101302.91;;;5.72;65.46
78144;BME280;67394;52.522;13.622;2023-02-19T11:31:31;101308.25;;;5.81;66.41
78144;BME280;67394;52.522;13.622;2023-02-19T11:36:41;101314.59;;;5.95;64.29
78144;BME280;67394;52.522;13.622;2023-02-19T11:45:21;101318.06;;;5.69;64.95
78144;BME280;67394;52.522;13.622;2023-02-19T11:53:17;101328.88;;;5.63;65.24
78144;BME280;67394;52.522;13.622;2023-02-19T12:01:22;101315.94;;;5.56;63.75
78144;BME280;67394;52.522;13.622;2023-02-19T12:07:05;101320.50;;;5.93;62.62
78144;BME280;67394;52.522;13.622;2023-02-19T12:14:57;101322.38;;;6.30;61.15
78144;BME280;67394;52.522;13.622;2023-02-19T12:26:07;101331.25;;;5.85;63.24
78144;BME280;67394;52.522;13.622;2023-02-19T12:34:29;101342.09;;;5.51;60.22
78144;BME280;67394;52.522;13.622;2023-02-19T12:39:46;101354.78;;;5.78;61.71
78144;BME280;67394;52.522;13.622;2023-02-19T12:44:57;101356.22;;;6.57;58.74
78144;BME280;67394;52.522;13.622;2023-02-19T12:47:38;101361.50;;;6.63;58.16
78144;BME280;67394;52.522;13.622;2023-02-19T12:50:19;101361.00;;;6.45;59.39
78144;BME280;67394;52.522;13.622;2023-02-19T12:52:51;101363.03;;;6.58;58.71
78144;BME280;67394;52.522;13.622;2023-02-19T12:55:28;101345.19;;;6.89;59.16
78144;BME280;67394;52.522;13.622;2023-02-19T12:57:58;101350.09;;;7.15;57.42
78144;BME280;67394;52.522;13.622;2023-02-19T13:00:52;101358.81;;;7.24;57.07
78144;BME280;67394;52.522;13.622;2023-02-19T13:03:29;101353.25;;;7.39;57.55
78144;BME280;67394;52.522;13.622;2023-02-19T13:06:23;101366.38;;;7.21;56.67
78144;BME280;67394;52.522;13.622;2023-02-19T13:11:43;101367.81;;;7.45;56.67
78144;BME280;67394;52.522;13.622;2023-02-19T13:14:16;101368.03;;;7.54;54.34
78144;BME280;67394;52.522;13.622;2023-02-19T13:16:50;101367.50;;;7.32;54.29
78144;BME280;67394;52.522;13.622;2023-02-19T13:19:18;101384.03;;;7.47;54.50
78144;BME280;67394;52.522;13.622;2023-02-19T13:21:55;101378.19;;;7.51;54.44
78144;BME280;67394;52.522;13.622;2023-02-19T13:24:30;101382.63;;;7.25;55.27
78144;BME280;67394;52.522;13.622;2023-02-19T13:29:52;101386.78;;;7.21;53.73
78144;BME280;67394;52.522;13.622;2023-02-19T13:35:41;101389.28;;;7.18;53.64
78144;BME280;67394;52.522;13.622;2023-02-19T13:38:28;101387.69;;;7.23;54.22
78144;BME280;67394;52.522;13.622;2023-02-19T13:40:58;101386.72;;;7.18;54.76
78144;BME280;67394;52.522;13.622;2023-02-19T13:43:39;101385.13;;;7.23;55.39
78144;BME280;67394;52.522;13.622;2023-02-19T13:46:11;101382.59;;;7.23;53.36
78144;BME280;67394;52.522;13.622;2023-02-19T13:48:42;101399.84;;;7.33;53.48
78144;BME280;67394;52.522;13.622;2023-02-19T14:07:20;101418.72;;;6.44;55.33
78144;BME280;67394;52.522;13.622;2023-02-19T14:09:48;101429.09;;;6.52;55.84
78144;BME280;67394;52.522;13.622;2023-02-19T14:14:45;101419.47;;;6.42;54.76
78144;BME280;67394;52.522;13.622;2023-02-19T14:17:25;101432.63;;;6.55;53.83
78144;BME280;67394;52.522;13.622;2023-02-19T14:25:34;101428.91;;;6.44;53.52
78144;BME280;67394;52.522;13.622;2023-02-19T14:33:48;101439.53;;;6.61;52.16
78144;BME280;67394;52.522;13.622;2023-02-19T14:36:25;101444.28;;;6.49;53.45
78144;BME280;67394;52.522;13.622;2023-02-19T14:38:55;101441.97;;;6.28;53.00
78144;BME280;67394;52.522;13.622;2023-02-19T14:41:23;101441.06;;;6.26;54.65
78144;BME280;67394;52.522;13.622;2023-02-19T14:43:52;101430.63;;;6.17;54.17
78144;BME280;67394;52.522;13.622;2023-02-19T14:46:34;101427.84;;;6.09;54.50
78144;BME280;67394;52.522;13.622;2023-02-19T14:52:15;101436.66;;;6.20;55.45
78144;BME280;67394;52.522;13.622;2023-02-19T14:54:48;101434.78;;;6.13;55.56
78144;BME280;67394;52.522;13.622;2023-02-19T14:57:23;101445.44;;;6.02;54.58
78144;BME280;67394;52.522;13.622;2023-02-19T14:59:57;101451.19;;;5.96;54.20